sensor_id;sensor_type;location;lat;lon;timestamp;pressure;altitude;pressure_sealevel;temperature;humidity
17311;BME280;8773;43.300;0.394;2023-10-19T00:00:51;97920.28;;;18.18;72.54
17311;BME280;8773;43.300;0.394;2023-10-19T00:03:19;97904.50;;;18.10;73.05
17311;BME280;8773;43.300;0.394;2023-10-19T00:05:46;97914.56;;;18.15;73.34
17311;BME280;8773;43.300;0.394;2023-10-19T00:08:14;97916.09;;;18.27;72.41
17311;BME280;8773;43.300;0.394;2023-10-19T00:10:44;97901.69;;;18.22;72.50
17311;BME280;8773;43.300;0.394;2023-10-19T00:13:13;97890.50;;;18.13;72.92
17311;BME280;8773;43.300;0.394;2023-10-19T00:15:42;97887.56;;;18.36;71.90
17311;BME280;8773;43.300;0.394;2023-10-19T00:18:10;97866.03;;;17.81;74.23
17311;BME280;8773;43.300;0.394;2023-10-19T00:20:37;97887.16;;;18.06;73.62
17311;BME280;8773;43.300;0.394;2023-10-19T00:23:05;97881.50;;;17.69;74.42
17311;BME280;8773;43.300;0.394;2023-10-19T00:25:32;97880.28;;;17.43;75.99
17311;BME280;8773;43.300;0.394;2023-10-19T00:28:01;97900.97;;;17.88;74.45
17311;BME280;8773;43.300;0.394;2023-10-19T00:30:28;97910.88;;;18.21;72.98
17311;BME280;8773;43.300;0.394;2023-10-19T00:32:56;97897.91;;;18.01;73.49
17311;BME280;8773;43.300;0.394;2023-10-19T00:35:24;97899.81;;;18.22;73.11
17311;BME280;8773;43.300;0.394;2023-10-19T00:37:51;97896.63;;;18.25;72.74
17311;BME280;8773;43.300;0.394;2023-10-19T00:40:18;97894.50;;;18.11;73.71
17311;BME280;8773;43.300;0.394;2023-10-19T00:42:46;97901.03;;;18.31;72.55
17311;BME280;8773;43.300;0.394;2023-10-19T00:45:15;97894.97;;;18.24;72.59
17311;BME280;8773;43.300;0.394;2023-10-19T00:47:42;97876.31;;;18.23;72.58
17311;BME280;8773;43.300;0.394;2023-10-19T00:50:10;97872.59;;;18.07;73.25
17311;BME280;8773;43.300;0.394;2023-10-19T00:52:37;97866.97;;;18.30;72.59
17311;BME280;8773;43.300;0.394;2023-10-19T00:55:05;97858.03;;;18.52;71.79
17311;BME280;8773;43.300;0.394;2023-10-19T00:57:33;97858.03;;;18.52;71.60
17311;BME280;8773;43.300;0.394;2023-10-19T01:00:01;97850.31;;;18.60;71.47
17311;BME280;8773;43.300;0.394;2023-10-19T01:02:30;97838.50;;;18.23;72.16
17311;BME280;8773;43.300;0.394;2023-10-19T01:04:57;97831.22;;;18.45;71.06
17311;BME280;8773;43.300;0.394;2023-10-19T01:07:26;97848.25;;;18.46;71.60
17311;BME280;8773;43.300;0.394;2023-10-19T01:09:55;97842.16;;;18.33;71.81
17311;BME280;8773;43.300;0.394;2023-10-19T01:12:23;97827.13;;;18.43;71.48
17311;BME280;8773;43.300;0.394;2023-10-19T01:15:09;97813.75;;;18.31;71.87
17311;BME280;8773;43.300;0.394;2023-10-19T01:17:38;97828.88;;;18.10;72.50
17311;BME280;8773;43.300;0.394;2023-10-19T01:20:08;97831.91;;;18.14;72.22
17311;BME280;8773;43.300;0.394;2023-10-19T01:22:35;97832.91;;;18.29;72.01
17311;BME280;8773;43.300;0.394;2023-10-19T01:25:05;97840.56;;;18.38;71.76
17311;BME280;8773;43.300;0.394;2023-10-19T01:27:32;97832.84;;;18.24;72.11
17311;BME280;8773;43.300;0.394;2023-10-19T01:30:00;97827.88;;;18.16;72.43
17311;BME280;8773;43.300;0.394;2023-10-19T01:32:29;97821.53;;;18.06;72.79
17311;BME280;8773;43.300;0.394;2023-10-19T01:34:57;97807.34;;;18.37;71.79
17311;BME280;8773;43.300;0.394;2023-10-19T01:37:24;97818.88;;;18.54;71.22
17311;BME280;8773;43.300;0.394;2023-10-19T01:39:52;97815.31;;;18.49;71.76
17311;BME280;8773;43.300;0.394;2023-10-19T01:42:21;97813.91;;;18.68;71.02
17311;BME280;8773;43.300;0.394;2023-10-19T01:44:48;97800.19;;;18.75;71.10
17311;BME280;8773;43.300;0.394;2023-10-19T01:47:16;97798.91;;;18.82;70.68
17311;BME280;8773;43.300;0.394;2023-10-19T01:49:43;97793.28;;;18.62;71.58
17311;BME280;8773;43.300;0.394;2023-10-19T01:52:11;97786.31;;;18.66;71.44
17311;BME280;8773;43.300;0.394;2023-10-19T01:54:38;97789.25;;;18.64;72.04
17311;BME280;8773;43.300;0.394;2023-10-19T01:57:05;97788.41;;;18.59;72.21
17311;BME280;8773;43.300;0.394;2023-10-19T01:59:34;97772.78;;;18.66;71.67
17311;BME280;8773;43.300;0.394;2023-10-19T02:02:02;97770.28;;;18.59;71.85
17311;BME280;8773;43.300;0.394;2023-10-19T02:04:29;97771.72;;;18.67;71.92
17311;BME280;8773;43.300;0.394;2023-10-19T02:06:57;97770.75;;;18.78;71.51
17311;BME280;8773;43.300;0.394;2023-10-19T02:09:24;97780.59;;;18.89;70.97
17311;BME280;8773;43.300;0.394;2023-10-19T02:11:53;97770.84;;;18.88;70.94
17311;BME280;8773;43.300;0.394;2023-10-19T02:14:21;97783.72;;;18.76;71.13
17311;BME280;8773;43.300;0.394;2023-10-19T02:16:52;97769.06;;;18.72;71.47
17311;BME280;8773;43.300;0.394;2023-10-19T02:19:21;97767.94;;;18.46;71.70
17311;BME280;8773;43.300;0.394;2023-10-19T02:21:50;97766.25;;;18.62;71.42
17311;BME280;8773;43.300;0.394;2023-10-19T02:24:18;97756.66;;;18.49;71.86
17311;BME280;8773;43.300;0.394;2023-10-19T02:26:48;97764.56;;;18.56;71.87
17311;BME280;8773;43.300;0.394;2023-10-19T02:29:16;97755.44;;;18.35;72.19
17311;BME280;8773;43.300;0.394;2023-10-19T02:31:43;97749.16;;;18.29;71.95
17311;BME280;8773;43.300;0.394;2023-10-19T02:34:12;97738.19;;;17.70;74.72
17311;BME280;8773;43.300;0.394;2023-10-19T02:36:41;97739.28;;;17.91;73.97
17311;BME280;8773;43.300;0.394;2023-10-19T02:39:10;97738.59;;;18.01;73.76
17311;BME280;8773;43.300;0.394;2023-10-19T02:41:39;97719.00;;;17.89;74.10
17311;BME280;8773;43.300;0.394;2023-10-19T02:44:08;97702.50;;;17.85;74.33
17311;BME280;8773;43.300;0.394;2023-10-19T02:46:36;97680.38;;;17.88;74.32
17311;BME280;8773;43.300;0.394;2023-10-19T02:49:05;97676.44;;;17.96;74.03
17311;BME280;8773;43.300;0.394;2023-10-19T02:51:34;97657.16;;;17.65;75.11
17311;BME280;8773;43.300;0.394;2023-10-19T02:54:01;97662.63;;;17.70;75.65
17311;BME280;8773;43.300;0.394;2023-10-19T02:56:28;97669.25;;;17.41;76.27
17311;BME280;8773;43.300;0.394;2023-10-19T02:58:56;97672.53;;;17.43;76.46
17311;BME280;8773;43.300;0.394;2023-10-19T03:01:23;97697.09;;;17.63;75.81
17311;BME280;8773;43.300;0.394;2023-10-19T03:03:51;97692.38;;;17.76;75.58
17311;BME280;8773;43.300;0.394;2023-10-19T03:06:19;97676.78;;;17.39;77.22
17311;BME280;8773;43.300;0.394;2023-10-19T03:08:49;97663.47;;;17.11;78.55
17311;BME280;8773;43.300;0.394;2023-10-19T03:11:17;97658.97;;;17.38;77.56
17311;BME280;8773;43.300;0.394;2023-10-19T03:13:44;97652.25;;;17.41;76.94
17311;BME280;8773;43.300;0.394;2023-10-19T03:16:12;97646.38;;;17.44;77.00
17311;BME280;8773;43.300;0.394;2023-10-19T03:18:39;97633.75;;;17.27;77.11
17311;BME280;8773;43.300;0.394;2023-10-19T03:21:06;97649.63;;;17.46;76.39
17311;BME280;8773;43.300;0.394;2023-10-19T03:23:34;97660.16;;;17.47;76.37
17311;BME280;8773;43.300;0.394;2023-10-19T03:26:03;97643.78;;;17.32;76.63
17311;BME280;8773;43.300;0.394;2023-10-19T03:28:30;97637.88;;;17.35;76.67
17311;BME280;8773;43.300;0.394;2023-10-19T03:30:57;97638.78;;;17.62;75.42
17311;BME280;8773;43.300;0.394;2023-10-19T03:33:25;97629.47;;;17.10;76.92
17311;BME280;8773;43.300;0.394;2023-10-19T03:35:52;97629.09;;;17.23;76.87
17311;BME280;8773;43.300;0.394;2023-10-19T03:38:20;97616.69;;;17.44;76.22
17311;BME280;8773;43.300;0.394;2023-10-19T03:40:47;97618.88;;;17.47;76.01
17311;BME280;8773;43.300;0.394;2023-10-19T03:43:16;97613.38;;;17.36;75.90
17311;BME280;8773;43.300;0.394;2023-10-19T03:45:44;97609.91;;;17.41;76.00
17311;BME280;8773;43.300;0.394;2023-10-19T03:48:12;97601.19;;;17.34;76.41
17311;BME280;8773;43.300;0.394;2023-10-19T03:50:39;97592.59;;;17.37;76.22
17311;BME280;8773;43.300;0.394;2023-10-19T03:53:07;97580.69;;;17.60;75.42
17311;BME280;8773;43.300;0.394;2023-10-19T03:55:34;97572.03;;;17.31;76.44
17311;BME280;8773;43.300;0.394;2023-10-19T03:58:01;97560.16;;;17.32;76.18
17311;BME280;8773;43.300;0.394;2023-10-19T04:00:30;97545.16;;;17.41;76.04
17311;BME280;8773;43.300;0.394;2023-10-19T04:02:58;97535.00;;;17.48;75.65
17311;BME280;8773;43.300;0.394;2023-10-19T04:05:25;97526.72;;;17.33;76.08
17311;BME280;8773;43.300;0.394;2023-10-19T04:07:53;97530.47;;;17.05;77.26
17311;BME280;8773;43.300;0.394;2023-10-19T04:10:20;97521.13;;;17.13;76.85
17311;BME280;8773;43.300;0.394;2023-10-19T04:12:48;97528.75;;;16.77;77.20
17311;BME280;8773;43.300;0.394;2023-10-19T04:15:15;97508.72;;;17.12;76.37
17311;BME280;8773;43.300;0.394;2023-10-19T04:17:45;97500.19;;;16.98;76.30
17311;BME280;8773;43.300;0.394;2023-10-19T04:20:13;97505.75;;;17.13;75.86
17311;BME280;8773;43.300;0.394;2023-10-19T04:22:41;97507.84;;;17.33;74.98
17311;BME280;8773;43.300;0.394;2023-10-19T04:25:08;97499.25;;;17.36;74.70
17311;BME280;8773;43.300;0.394;2023-10-19T04:27:36;97492.97;;;17.30;74.93
17311;BME280;8773;43.300;0.394;2023-10-19T04:30:04;97496.97;;;17.50;74.13
17311;BME280;8773;43.300;0.394;2023-10-19T04:32:32;97486.75;;;17.52;73.80
17311;BME280;8773;43.300;0.394;2023-10-19T04:35:01;97484.34;;;17.55;74.13
17311;BME280;8773;43.300;0.394;2023-10-19T04:37:28;97479.91;;;17.44;74.10
17311;BME280;8773;43.300;0.394;2023-10-19T04:39:56;97478.75;;;17.35;74.51
17311;BME280;8773;43.300;0.394;2023-10-19T04:42:23;97468.09;;;17.50;73.64
17311;BME280;8773;43.300;0.394;2023-10-19T04:44:50;97464.38;;;17.56;73.64
17311;BME280;8773;43.300;0.394;2023-10-19T04:47:18;97458.94;;;17.51;73.46
17311;BME280;8773;43.300;0.394;2023-10-19T04:49:45;97445.50;;;17.56;73.63
17311;BME280;8773;43.300;0.394;2023-10-19T04:52:14;97440.72;;;17.63;73.19
17311;BME280;8773;43.300;0.394;2023-10-19T04:54:41;97442.38;;;17.69;73.19
17311;BME280;8773;43.300;0.394;2023-10-19T04:57:08;97450.22;;;17.71;73.37
17311;BME280;8773;43.300;0.394;2023-10-19T04:59:36;97441.63;;;17.74;73.22
17311;BME280;8773;43.300;0.394;2023-10-19T05:02:03;97444.78;;;17.39;74.33
17311;BME280;8773;43.300;0.394;2023-10-19T05:04:31;97444.28;;;17.42;74.49
17311;BME280;8773;43.300;0.394;2023-10-19T05:06:58;97461.19;;;17.59;73.73
17311;BME280;8773;43.300;0.394;2023-10-19T05:09:27;97444.69;;;17.56;73.87
17311;BME280;8773;43.300;0.394;2023-10-19T05:11:55;97437.72;;;17.33;74.84
17311;BME280;8773;43.300;0.394;2023-10-19T05:14:22;97428.97;;;17.21;75.25
17311;BME280;8773;43.300;0.394;2023-10-19T05:16:49;97442.66;;;17.41;74.38
17311;BME280;8773;43.300;0.394;2023-10-19T05:19:17;97457.06;;;17.52;74.17
17311;BME280;8773;43.300;0.394;2023-10-19T05:21:44;97469.31;;;17.64;73.33
17311;BME280;8773;43.300;0.394;2023-10-19T05:24:12;97481.78;;;17.70;73.28
17311;BME280;8773;43.300;0.394;2023-10-19T05:26:40;97483.97;;;17.20;75.72
17311;BME280;8773;43.300;0.394;2023-10-19T05:29:08;97496.56;;;17.36;74.96
17311;BME280;8773;43.300;0.394;2023-10-19T05:31:35;97509.91;;;16.99;77.06
17311;BME280;8773;43.300;0.394;2023-10-19T05:34:02;97517.50;;;17.29;75.46
17311;BME280;8773;43.300;0.394;2023-10-19T05:36:30;97539.38;;;17.06;76.75
17311;BME280;8773;43.300;0.394;2023-10-19T05:38:57;97521.44;;;16.56;78.76
17311;BME280;8773;43.300;0.394;2023-10-19T05:41:25;97509.50;;;16.68;78.30
17311;BME280;8773;43.300;0.394;2023-10-19T05:43:54;97494.66;;;17.10;76.18
17311;BME280;8773;43.300;0.394;2023-10-19T05:46:21;97498.34;;;16.60;77.94
17311;BME280;8773;43.300;0.394;2023-10-19T05:48:49;97477.03;;;16.80;77.97
17311;BME280;8773;43.300;0.394;2023-10-19T05:51:16;97482.09;;;16.55;78.56
17311;BME280;8773;43.300;0.394;2023-10-19T05:53:43;97488.22;;;16.89;77.23
17311;BME280;8773;43.300;0.394;2023-10-19T05:56:11;97477.56;;;16.38;79.72
17311;BME280;8773;43.300;0.394;2023-10-19T05:58:38;97495.84;;;16.75;77.72
17311;BME280;8773;43.300;0.394;2023-10-19T06:01:08;97481.69;;;16.46;79.05
17311;BME280;8773;43.300;0.394;2023-10-19T06:03:36;97478.13;;;16.79;77.79
17311;BME280;8773;43.300;0.394;2023-10-19T06:06:03;97461.38;;;16.77;77.80
17311;BME280;8773;43.300;0.394;2023-10-19T06:08:31;97448.22;;;17.02;76.73
17311;BME280;8773;43.300;0.394;2023-10-19T06:10:58;97449.78;;;16.98;77.26
17311;BME280;8773;43.300;0.394;2023-10-19T06:13:25;97461.81;;;17.13;76.45
17311;BME280;8773;43.300;0.394;2023-10-19T06:15:53;97448.34;;;17.18;76.23
17311;BME280;8773;43.300;0.394;2023-10-19T06:18:22;97457.97;;;17.09;76.92
17311;BME280;8773;43.300;0.394;2023-10-19T06:20:49;97445.00;;;16.62;78.40
17311;BME280;8773;43.300;0.394;2023-10-19T06:23:17;97440.19;;;16.86;77.77
17311;BME280;8773;43.300;0.394;2023-10-19T06:25:44;97446.63;;;17.07;76.91
17311;BME280;8773;43.300;0.394;2023-10-19T06:28:11;97436.53;;;17.24;76.17
17311;BME280;8773;43.300;0.394;2023-10-19T06:30:39;97432.78;;;17.25;75.95
17311;BME280;8773;43.300;0.394;2023-10-19T06:33:06;97433.44;;;17.37;75.47
17311;BME280;8773;43.300;0.394;2023-10-19T06:35:35;97442.69;;;17.14;76.22
17311;BME280;8773;43.300;0.394;2023-10-19T06:38:03;97429.13;;;17.36;75.55
17311;BME280;8773;43.300;0.394;2023-10-19T06:40:31;97430.59;;;17.49;75.05
17311;BME280;8773;43.300;0.394;2023-10-19T06:43:01;97427.75;;;17.33;75.34
17311;BME280;8773;43.300;0.394;2023-10-19T06:45:28;97421.16;;;17.51;75.11
17311;BME280;8773;43.300;0.394;2023-10-19T06:47:56;97414.44;;;17.54;74.72
17311;BME280;8773;43.300;0.394;2023-10-19T06:50:24;97406.09;;;17.55;74.78
17311;BME280;8773;43.300;0.394;2023-10-19T06:52:53;97401.16;;;17.15;75.54
17311;BME280;8773;43.300;0.394;2023-10-19T06:55:20;97409.16;;;17.37;75.38
17311;BME280;8773;43.300;0.394;2023-10-19T06:57:48;97418.16;;;17.48;74.77
17311;BME280;8773;43.300;0.394;2023-10-19T07:00:17;97435.56;;;17.62;73.96
17311;BME280;8773;43.300;0.394;2023-10-19T07:02:45;97440.50;;;17.70;73.80
17311;BME280;8773;43.300;0.394;2023-10-19T07:05:14;97457.75;;;17.69;73.94
17311;BME280;8773;43.300;0.394;2023-10-19T07:07:42;97469.22;;;17.54;74.11
17311;BME280;8773;43.300;0.394;2023-10-19T07:10:12;97484.59;;;17.81;73.25
17311;BME280;8773;43.300;0.394;2023-10-19T07:12:41;97478.97;;;17.60;73.69
17311;BME280;8773;43.300;0.394;2023-10-19T07:15:09;97491.78;;;17.70;73.31
17311;BME280;8773;43.300;0.394;2023-10-19T07:17:37;97507.25;;;17.80;73.00
17311;BME280;8773;43.300;0.394;2023-10-19T07:20:05;97489.53;;;17.35;74.52
17311;BME280;8773;43.300;0.394;2023-10-19T07:22:33;97487.66;;;17.62;73.90
17311;BME280;8773;43.300;0.394;2023-10-19T07:25:00;97495.94;;;17.56;73.69
17311;BME280;8773;43.300;0.394;2023-10-19T07:27:29;97486.63;;;17.68;73.41
17311;BME280;8773;43.300;0.394;2023-10-19T07:30:04;97483.06;;;17.63;73.60
17311;BME280;8773;43.300;0.394;2023-10-19T07:32:32;97474.91;;;17.85;73.07
17311;BME280;8773;43.300;0.394;2023-10-19T07:34:59;97483.13;;;18.00;72.85
17311;BME280;8773;43.300;0.394;2023-10-19T07:37:27;97481.00;;;18.07;72.69
17311;BME280;8773;43.300;0.394;2023-10-19T07:39:54;97471.00;;;18.02;72.65
17311;BME280;8773;43.300;0.394;2023-10-19T07:42:21;97474.78;;;18.07;72.45
17311;BME280;8773;43.300;0.394;2023-10-19T07:44:50;97471.56;;;18.10;72.21
17311;BME280;8773;43.300;0.394;2023-10-19T07:47:17;97463.38;;;17.94;72.82
17311;BME280;8773;43.300;0.394;2023-10-19T07:49:45;97456.41;;;18.03;72.38
17311;BME280;8773;43.300;0.394;2023-10-19T07:52:12;97463.69;;;18.03;71.50
17311;BME280;8773;43.300;0.394;2023-10-19T07:54:40;97463.72;;;18.08;71.48
17311;BME280;8773;43.300;0.394;2023-10-19T07:57:07;97456.78;;;18.17;71.42
17311;BME280;8773;43.300;0.394;2023-10-19T07:59:35;97444.41;;;18.26;71.38
17311;BME280;8773;43.300;0.394;2023-10-19T08:02:03;97439.44;;;18.13;71.94
17311;BME280;8773;43.300;0.394;2023-10-19T08:04:31;97429.81;;;18.27;71.76
17311;BME280;8773;43.300;0.394;2023-10-19T08:06:59;97426.91;;;18.39;71.32
17311;BME280;8773;43.300;0.394;2023-10-19T08:09:26;97442.03;;;18.35;71.71
17311;BME280;8773;43.300;0.394;2023-10-19T08:11:53;97428.72;;;18.23;69.79
17311;BME280;8773;43.300;0.394;2023-10-19T08:14:22;97445.88;;;18.07;70.56
17311;BME280;8773;43.300;0.394;2023-10-19T08:16:49;97467.75;;;18.00;70.49
17311;BME280;8773;43.300;0.394;2023-10-19T08:19:18;97479.91;;;17.71;72.11
17311;BME280;8773;43.300;0.394;2023-10-19T08:21:45;97468.34;;;17.76;72.31
17311;BME280;8773;43.300;0.394;2023-10-19T08:24:13;97484.19;;;17.40;71.94
17311;BME280;8773;43.300;0.394;2023-10-19T08:26:40;97496.63;;;17.68;71.65
17311;BME280;8773;43.300;0.394;2023-10-19T08:29:08;97516.47;;;17.84;71.47
17311;BME280;8773;43.300;0.394;2023-10-19T08:31:35;97482.44;;;17.29;71.75
17311;BME280;8773;43.300;0.394;2023-10-19T08:34:03;97482.16;;;17.52;71.69
17311;BME280;8773;43.300;0.394;2023-10-19T08:36:31;97466.91;;;17.95;70.95
17311;BME280;8773;43.300;0.394;2023-10-19T08:38:59;97441.56;;;17.69;69.35
17311;BME280;8773;43.300;0.394;2023-10-19T08:41:26;97433.41;;;17.96;69.03
17311;BME280;8773;43.300;0.394;2023-10-19T08:43:55;97436.75;;;18.13;70.13
17311;BME280;8773;43.300;0.394;2023-10-19T08:46:22;97435.81;;;18.34;69.66
17311;BME280;8773;43.300;0.394;2023-10-19T08:48:54;97439.56;;;18.28;70.20
17311;BME280;8773;43.300;0.394;2023-10-19T08:51:22;97432.56;;;18.32;70.22
17311;BME280;8773;43.300;0.394;2023-10-19T08:53:53;97426.19;;;18.54;69.89
17311;BME280;8773;43.300;0.394;2023-10-19T08:56:20;97432.19;;;18.66;69.61
17311;BME280;8773;43.300;0.394;2023-10-19T08:58:48;97418.16;;;18.69;69.25
17311;BME280;8773;43.300;0.394;2023-10-19T09:01:18;97422.78;;;18.74;69.57
17311;BME280;8773;43.300;0.394;2023-10-19T09:03:45;97416.88;;;18.92;69.13
17311;BME280;8773;43.300;0.394;2023-10-19T09:06:13;97412.41;;;18.50;70.72
17311;BME280;8773;43.300;0.394;2023-10-19T09:08:40;97399.06;;;18.33;69.44
17311;BME280;8773;43.300;0.394;2023-10-19T09:11:10;97394.25;;;18.41;68.46
17311;BME280;8773;43.300;0.394;2023-10-19T09:13:44;97384.06;;;18.63;67.94
17311;BME280;8773;43.300;0.394;2023-10-19T09:16:11;97379.25;;;18.75;68.27
17311;BME280;8773;43.300;0.394;2023-10-19T09:18:39;97369.00;;;18.77;68.25
17311;BME280;8773;43.300;0.394;2023-10-19T09:21:07;97388.22;;;19.01;68.42
17311;BME280;8773;43.300;0.394;2023-10-19T09:23:36;97373.78;;;18.60;69.14
17311;BME280;8773;43.300;0.394;2023-10-19T09:26:04;97364.75;;;18.34;66.94
17311;BME280;8773;43.300;0.394;2023-10-19T09:28:36;97356.53;;;18.14;67.82
17311;BME280;8773;43.300;0.394;2023-10-19T09:31:04;97348.78;;;18.27;66.65
17311;BME280;8773;43.300;0.394;2023-10-19T09:33:33;97341.34;;;18.60;64.12
17311;BME280;8773;43.300;0.394;2023-10-19T09:36:02;97355.78;;;19.06;63.32
17311;BME280;8773;43.300;0.394;2023-10-19T09:38:30;97350.13;;;19.23;60.60
17311;BME280;8773;43.300;0.394;2023-10-19T09:40:57;97329.56;;;19.37;60.08
17311;BME280;8773;43.300;0.394;2023-10-19T09:43:41;97316.84;;;19.43;59.87
17311;BME280;8773;43.300;0.394;2023-10-19T09:46:10;97305.25;;;19.32;59.61
17311;BME280;8773;43.300;0.394;2023-10-19T09:48:40;97320.66;;;19.52;58.85
17311;BME280;8773;43.300;0.394;2023-10-19T09:51:07;97315.22;;;19.62;56.24
17311;BME280;8773;43.300;0.394;2023-10-19T09:53:45;97313.59;;;19.66;58.06
17311;BME280;8773;43.300;0.394;2023-10-19T09:56:17;97304.66;;;19.76;57.62
17311;BME280;8773;43.300;0.394;2023-10-19T09:58:49;97293.81;;;19.71;59.28
17311;BME280;8773;43.300;0.394;2023-10-19T10:01:18;97283.19;;;19.94;58.77
17311;BME280;8773;43.300;0.394;2023-10-19T10:03:47;97296.88;;;20.28;58.04
17311;BME280;8773;43.300;0.394;2023-10-19T10:06:16;97298.97;;;20.47;57.76
17311;BME280;8773;43.300;0.394;2023-10-19T10:08:44;97285.16;;;20.48;57.95
17311;BME280;8773;43.300;0.394;2023-10-19T10:11:22;97269.91;;;19.98;60.27
17311;BME280;8773;43.300;0.394;2023-10-19T10:13:51;97259.84;;;20.19;61.75
17311;BME280;8773;43.300;0.394;2023-10-19T10:16:22;97242.56;;;20.54;59.64
17311;BME280;8773;43.300;0.394;2023-10-19T10:18:53;97232.78;;;20.58;58.49
17311;BME280;8773;43.300;0.394;2023-10-19T10:21:22;97240.94;;;20.53;58.76
17311;BME280;8773;43.300;0.394;2023-10-19T10:23:51;97230.59;;;20.60;57.72
17311;BME280;8773;43.300;0.394;2023-10-19T10:26:20;97242.56;;;20.93;57.59
17311;BME280;8773;43.300;0.394;2023-10-19T10:28:50;97247.72;;;20.94;58.93
17311;BME280;8773;43.300;0.394;2023-10-19T10:31:41;97247.50;;;21.20;59.40
17311;BME280;8773;43.300;0.394;2023-10-19T10:34:08;97253.88;;;21.34;58.12
17311;BME280;8773;43.300;0.394;2023-10-19T10:36:57;97241.88;;;21.40;59.37
17311;BME280;8773;43.300;0.394;2023-10-19T10:39:25;97240.31;;;21.63;59.48
17311;BME280;8773;43.300;0.394;2023-10-19T10:41:57;97233.91;;;21.78;58.31
17311;BME280;8773;43.300;0.394;2023-10-19T10:44:38;97227.56;;;22.06;57.71
17311;BME280;8773;43.300;0.394;2023-10-19T10:47:08;97228.31;;;22.12;58.25
17311;BME280;8773;43.300;0.394;2023-10-19T10:49:47;97221.53;;;22.09;58.93
17311;BME280;8773;43.300;0.394;2023-10-19T10:52:23;97215.31;;;22.09;56.92
17311;BME280;8773;43.300;0.394;2023-10-19T10:54:50;97199.69;;;22.38;55.28
17311;BME280;8773;43.300;0.394;2023-10-19T10:57:19;97196.50;;;21.70;53.73
17311;BME280;8773;43.300;0.394;2023-10-19T10:59:46;97192.06;;;21.79;53.09
17311;BME280;8773;43.300;0.394;2023-10-19T11:02:19;97199.34;;;21.54;51.83
17311;BME280;8773;43.300;0.394;2023-10-19T11:04:46;97204.53;;;21.80;52.10
17311;BME280;8773;43.300;0.394;2023-10-19T11:07:18;97182.00;;;21.79;52.17
17311;BME280;8773;43.300;0.394;2023-10-19T11:09:46;97190.84;;;21.66;52.42
17311;BME280;8773;43.300;0.394;2023-10-19T11:12:14;97181.19;;;21.79;51.70
17311;BME280;8773;43.300;0.394;2023-10-19T11:14:52;97168.66;;;22.02;51.67
17311;BME280;8773;43.300;0.394;2023-10-19T11:17:20;97170.28;;;22.21;51.35
17311;BME280;8773;43.300;0.394;2023-10-19T11:19:48;97172.06;;;22.50;50.99
17311;BME280;8773;43.300;0.394;2023-10-19T11:22:15;97155.88;;;22.58;49.11
17311;BME280;8773;43.300;0.394;2023-10-19T11:24:43;97151.91;;;22.70;49.86
17311;BME280;8773;43.300;0.394;2023-10-19T11:27:10;97141.75;;;22.75;50.79
17311;BME280;8773;43.300;0.394;2023-10-19T11:29:38;97150.53;;;22.53;50.12
17311;BME280;8773;43.300;0.394;2023-10-19T11:32:05;97151.19;;;22.45;50.82
17311;BME280;8773;43.300;0.394;2023-10-19T11:34:34;97130.25;;;21.89;51.33
17311;BME280;8773;43.300;0.394;2023-10-19T11:37:02;97131.59;;;21.92;51.11
17311;BME280;8773;43.300;0.394;2023-10-19T11:39:30;97108.16;;;22.15;52.47
17311;BME280;8773;43.300;0.394;2023-10-19T11:41:57;97092.72;;;22.10;52.13
17311;BME280;8773;43.300;0.394;2023-10-19T11:44:24;97080.38;;;22.37;51.28
17311;BME280;8773;43.300;0.394;2023-10-19T11:46:52;97084.84;;;22.46;50.80
17311;BME280;8773;43.300;0.394;2023-10-19T11:49:19;97087.03;;;22.77;50.19
17311;BME280;8773;43.300;0.394;2023-10-19T11:51:49;97077.19;;;22.94;49.34
17311;BME280;8773;43.300;0.394;2023-10-19T11:54:16;97063.94;;;22.09;51.75
17311;BME280;8773;43.300;0.394;2023-10-19T11:56:44;97063.97;;;22.42;52.69
17311;BME280;8773;43.300;0.394;2023-10-19T11:59:11;97067.53;;;22.56;51.61
17311;BME280;8773;43.300;0.394;2023-10-19T12:01:38;97058.03;;;22.40;51.04
17311;BME280;8773;43.300;0.394;2023-10-19T12:04:06;97058.53;;;22.42;51.01
17311;BME280;8773;43.300;0.394;2023-10-19T12:06:33;97057.09;;;22.30;51.49
17311;BME280;8773;43.300;0.394;2023-10-19T12:09:02;97052.16;;;22.33;51.67
17311;BME280;8773;43.300;0.394;2023-10-19T12:11:30;97051.13;;;22.28;52.37
17311;BME280;8773;43.300;0.394;2023-10-19T12:13:57;97051.78;;;21.88;52.66
17311;BME280;8773;43.300;0.394;2023-10-19T12:16:25;97058.22;;;21.92;53.15
17311;BME280;8773;43.300;0.394;2023-10-19T12:18:52;97079.75;;;21.88;54.53
17311;BME280;8773;43.300;0.394;2023-10-19T12:21:20;97090.84;;;21.49;54.82
17311;BME280;8773;43.300;0.394;2023-10-19T12:23:47;97094.16;;;20.64;57.38
17311;BME280;8773;43.300;0.394;2023-10-19T12:26:16;97090.63;;;20.35;58.84
17311;BME280;8773;43.300;0.394;2023-10-19T12:28:43;97089.66;;;20.55;58.96
17311;BME280;8773;43.300;0.394;2023-10-19T12:31:13;97071.47;;;20.21;60.19
17311;BME280;8773;43.300;0.394;2023-10-19T12:33:41;97053.16;;;20.42;61.74
17311;BME280;8773;43.300;0.394;2023-10-19T12:36:08;97022.81;;;20.11;62.87
17311;BME280;8773;43.300;0.394;2023-10-19T12:38:36;96997.66;;;20.06;64.50
17311;BME280;8773;43.300;0.394;2023-10-19T12:41:03;96994.97;;;20.00;64.08
17311;BME280;8773;43.300;0.394;2023-10-19T12:43:32;96990.56;;;19.76;65.52
17311;BME280;8773;43.300;0.394;2023-10-19T12:45:59;96994.75;;;19.58;66.47
17311;BME280;8773;43.300;0.394;2023-10-19T12:48:26;97012.84;;;19.62;66.33
17311;BME280;8773;43.300;0.394;2023-10-19T12:50:54;96996.63;;;19.96;65.34
17311;BME280;8773;43.300;0.394;2023-10-19T12:53:22;96989.06;;;19.93;65.45
17311;BME280;8773;43.300;0.394;2023-10-19T12:55:49;96982.94;;;19.78;64.45
17311;BME280;8773;43.300;0.394;2023-10-19T12:58:16;96953.63;;;19.90;64.77
17311;BME280;8773;43.300;0.394;2023-10-19T13:00:45;96956.91;;;19.87;65.20
17311;BME280;8773;43.300;0.394;2023-10-19T13:03:13;96962.72;;;19.31;65.95
17311;BME280;8773;43.300;0.394;2023-10-19T13:05:40;96981.25;;;18.98;65.72
17311;BME280;8773;43.300;0.394;2023-10-19T13:08:08;96946.22;;;18.73;67.95
17311;BME280;8773;43.300;0.394;2023-10-19T13:10:36;96923.56;;;18.59;68.35
17311;BME280;8773;43.300;0.394;2023-10-19T13:13:04;96919.88;;;18.19;69.97
17311;BME280;8773;43.300;0.394;2023-10-19T13:15:32;96913.56;;;18.54;69.26